Time;durP1;ratioP1;P1;durP2;ratioP2;P2;SDS_P1;SDS_P2;PMS_P1;PMS_P2;Temp;Humidity;BMP_temperature;BMP_pressure;BME280_temperature;BME280_humidity;BME280_pressure;Samples;Min_cycle;Max_cycle;Signal;HPM_P1;HPM_P2
2022/03/07 00:01:54;;;;;;;12.85;7.97;;;7.80;44.00;;;;;;5033431;28;20029;-70
2022/03/07 00:04:21;;;;;;;13.43;7.90;;;7.70;43.70;;;;;;5033441;28;20018;-71
2022/03/07 00:06:47;;;;;;;12.98;8.38;;;7.60;44.00;;;;;;5033363;28;20025;-71
2022/03/07 00:09:14;;;;;;;20.77;8.45;;;7.50;44.30;;;;;;5033063;28;20080;-72
2022/03/07 00:11:41;;;;;;;16.45;8.50;;;7.50;44.50;;;;;;5033140;28;20079;-71
2022/03/07 00:14:07;;;;;;;17.23;8.55;;;7.50;44.60;;;;;;5033089;28;20018;-71
2022/03/07 00:16:33;;;;;;;16.30;8.60;;;7.50;44.80;;;;;;5015310;28;20112;-71
2022/03/07 00:18:59;;;;;;;12.73;8.00;;;7.40;44.60;;;;;;5015339;28;20022;-69
2022/03/07 00:21:25;;;;;;;12.95;8.35;;;7.40;45.00;;;;;;5032723;28;20112;-72
2022/03/07 00:23:51;;;;;;;14.40;8.77;;;7.40;45.20;;;;;;5033551;28;20022;-70
2022/03/07 00:26:18;;;;;;;14.75;8.68;;;7.50;45.30;;;;;;5033306;28;20101;-73
2022/03/07 00:28:44;;;;;;;14.65;7.75;;;7.50;46.10;;;;;;5032795;28;20022;-72
2022/03/07 00:31:10;;;;;;;13.75;8.27;;;7.50;45.30;;;;;;5014891;28;20494;-70
2022/03/07 00:33:36;;;;;;;12.35;8.15;;;7.40;45.40;;;;;;5033061;28;20128;-70
2022/03/07 00:36:03;;;;;;;17.35;9.07;;;7.40;45.70;;;;;;5032803;28;20018;-70
2022/03/07 00:38:28;;;;;;;16.20;8.65;;;7.40;45.30;;;;;;5032567;28;20029;-70
2022/03/07 00:40:54;;;;;;;11.73;7.72;;;7.40;45.30;;;;;;5032313;28;20393;-70
2022/03/07 00:43:21;;;;;;;12.57;7.75;;;7.40;45.40;;;;;;5033266;28;20097;-72
2022/03/07 00:45:47;;;;;;;16.83;8.45;;;7.30;45.30;;;;;;5032644;28;20559;-72
2022/03/07 00:48:13;;;;;;;13.30;8.00;;;7.20;45.60;;;;;;5032659;28;20057;-71
2022/03/07 00:50:42;;;;;;;14.82;7.93;;;7.10;45.70;;;;;;5032420;28;20029;-69
2022/03/07 00:53:09;;;;;;;12.75;7.88;;;7.10;45.70;;;;;;5014803;28;20120;-70
2022/03/07 00:55:36;;;;;;;12.77;7.65;;;7.20;46.30;;;;;;5032411;28;20030;-73
2022/03/07 00:58:02;;;;;;;16.00;8.15;;;7.20;45.90;;;;;;5032269;28;20471;-72
2022/03/07 01:00:28;;;;;;;13.15;7.95;;;7.20;46.00;;;;;;5032667;28;20045;-70
2022/03/07 01:02:54;;;;;;;15.70;8.38;;;7.10;45.80;;;;;;5014818;28;20036;-69
2022/03/07 01:05:19;;;;;;;13.60;8.25;;;7.10;46.00;;;;;;5032289;28;20036;-70
2022/03/07 01:07:46;;;;;;;13.10;8.13;;;7.10;46.10;;;;;;5032105;28;20462;-72
2022/03/07 01:10:11;;;;;;;12.05;7.75;;;7.10;46.30;;;;;;5032359;28;20026;-72
2022/03/07 01:12:37;;;;;;;13.73;7.53;;;7.10;46.30;;;;;;5032472;28;20474;-72
2022/03/07 01:15:04;;;;;;;12.77;8.15;;;7.00;46.10;;;;;;5032318;28;20136;-73
2022/03/07 01:17:29;;;;;;;12.25;7.65;;;6.90;46.20;;;;;;5032355;28;20033;-70
2022/03/07 01:19:55;;;;;;;11.60;7.55;;;6.80;46.00;;;;;;5032243;28;20492;-71
2022/03/07 01:22:21;;;;;;;12.82;7.35;;;6.70;46.30;;;;;;5032020;28;20037;-71
2022/03/07 01:24:46;;;;;;;12.63;7.95;;;6.60;46.30;;;;;;5032266;28;20032;-72
2022/03/07 01:27:12;;;;;;;14.75;7.97;;;6.50;46.40;;;;;;5014431;28;20044;-73
2022/03/07 01:29:38;;;;;;;14.80;7.75;;;6.50;46.50;;;;;;5031995;28;20018;-72
2022/03/07 01:32:03;;;;;;;19.92;8.27;;;6.50;46.70;;;;;;5014387;28;20385;-71
2022/03/07 01:34:29;;;;;;;11.25;7.30;;;6.50;46.70;;;;;;5014343;28;20040;-71
2022/03/07 01:36:55;;;;;;;12.77;7.57;;;6.50;46.80;;;;;;5031976;28;20029;-70
2022/03/07 01:39:20;;;;;;;12.88;8.07;;;6.40;46.70;;;;;;5031828;28;20406;-70
2022/03/07 01:41:46;;;;;;;12.00;7.20;;;6.40;47.00;;;;;;5031965;28;20038;-70
2022/03/07 01:44:20;;;;;;;14.45;8.32;;;6.40;46.70;;;;;;5033958;28;20029;-69
2022/03/07 01:46:47;;;;;;;16.88;7.65;;;6.40;46.90;;;;;;5035817;28;20040;-71
2022/03/07 01:49:13;;;;;;;14.93;7.38;;;6.30;47.00;;;;;;5035879;28;20021;-69
2022/03/07 01:51:41;;;;;;;14.48;7.85;;;6.30;47.40;;;;;;5035946;28;20034;-70
2022/03/07 01:54:10;;;;;;;12.68;7.78;;;6.30;47.40;;;;;;5035712;28;20029;-71
2022/03/07 01:56:36;;;;;;;12.57;7.50;;;6.30;47.40;;;;;;5035823;28;20033;-69
2022/03/07 01:59:04;;;;;;;13.23;7.47;;;6.40;47.50;;;;;;5035666;28;20021;-69
2022/03/07 02:01:30;;;;;;;12.82;7.78;;;6.30;47.30;;;;;;5035422;28;20042;-69
2022/03/07 02:03:56;;;;;;;14.90;8.07;;;6.30;47.40;;;;;;5035702;28;20104;-71
2022/03/07 02:06:22;;;;;;;14.07;8.85;;;6.20;47.70;;;;;;5035610;28;20121;-70
2022/03/07 02:08:50;;;;;;;11.63;7.70;;;6.20;48.20;;;;;;5017673;28;20032;-70
2022/03/07 02:11:17;;;;;;;11.68;7.70;;;6.20;48.00;;;;;;5035730;28;20029;-71
2022/03/07 02:13:43;;;;;;;11.35;7.35;;;6.10;48.00;;;;;;5035652;28;20515;-69
2022/03/07 02:16:09;;;;;;;14.18;8.30;;;6.10;47.80;;;;;;5035605;28;20105;-69
2022/03/07 02:18:35;;;;;;;12.52;7.45;;;6.00;48.40;;;;;;5035729;28;20439;-71
2022/03/07 02:21:08;;;;;;;11.93;7.50;;;6.00;48.40;;;;;;5035369;28;20045;-72
2022/03/07 02:23:35;;;;;;;11.65;7.32;;;5.90;48.60;;;;;;5035375;28;20029;-72
2022/03/07 02:26:08;;;;;;;12.10;7.15;;;5.90;48.30;;;;;;5035315;28;20071;-69
2022/03/07 02:28:33;;;;;;;13.73;8.00;;;5.80;48.50;;;;;;5035225;28;20052;-70
2022/03/07 02:30:59;;;;;;;12.30;7.57;;;5.70;48.20;;;;;;5035251;28;20029;-70
2022/03/07 02:33:25;;;;;;;11.13;7.35;;;5.70;48.80;;;;;;5035020;28;20379;-71
2022/03/07 02:35:50;;;;;;;13.50;7.85;;;5.70;48.30;;;;;;5034993;28;20175;-72
2022/03/07 02:38:16;;;;;;;13.23;7.90;;;5.70;48.90;;;;;;5035017;28;20025;-72
2022/03/07 02:40:44;;;;;;;12.82;7.70;;;5.80;48.90;;;;;;5034719;28;20056;-71
2022/03/07 02:43:09;;;;;;;12.15;8.07;;;5.90;48.70;;;;;;5034888;28;20025;-70
2022/03/07 02:45:35;;;;;;;13.13;8.52;;;6.00;48.70;;;;;;5035478;28;20104;-70
2022/03/07 02:48:01;;;;;;;14.00;8.73;;;6.10;49.30;;;;;;5034694;28;20044;-69
2022/03/07 02:50:26;;;;;;;11.85;7.90;;;6.10;49.50;;;;;;5034873;28;20036;-69
2022/03/07 02:52:52;;;;;;;12.23;7.53;;;6.10;49.20;;;;;;5037929;28;20026;-70
2022/03/07 02:55:18;;;;;;;15.18;8.00;;;6.10;48.90;;;;;;5036937;28;20025;-69
2022/03/07 02:57:43;;;;;;;14.63;8.02;;;6.00;48.90;;;;;;5037241;28;20455;-72
2022/03/07 03:00:10;;;;;;;13.02;8.50;;;5.90;49.00;;;;;;5035547;28;20028;-74
2022/03/07 03:02:36;;;;;;;13.68;8.30;;;5.80;49.20;;;;;;5034578;28;20029;-74
2022/03/07 03:05:01;;;;;;;14.45;8.88;;;5.80;49.10;;;;;;5016902;28;20021;-70
2022/03/07 03:07:27;;;;;;;29.65;11.38;;;5.70;49.40;;;;;;5034407;28;20026;-69
2022/03/07 03:09:53;;;;;;;12.90;8.75;;;5.70;49.30;;;;;;5034447;28;20591;-71
2022/03/07 03:12:24;;;;;;;13.15;8.75;;;5.70;49.50;;;;;;5034294;28;20021;-70
2022/03/07 03:14:49;;;;;;;13.15;8.43;;;5.70;49.70;;;;;;5034442;28;20118;-70
2022/03/07 03:17:16;;;;;;;13.05;8.52;;;5.70;49.70;;;;;;5034372;28;20072;-71
2022/03/07 03:19:42;;;;;;;14.85;9.20;;;5.70;49.80;;;;;;5033988;28;20077;-71
2022/03/07 03:22:07;;;;;;;14.30;8.30;;;5.70;50.60;;;;;;5034014;28;20033;-69
2022/03/07 03:24:33;;;;;;;14.32;8.90;;;5.70;49.90;;;;;;5033989;28;20164;-69
2022/03/07 03:26:59;;;;;;;14.23;8.80;;;5.60;49.90;;;;;;5033772;28;20497;-70
2022/03/07 03:29:25;;;;;;;13.55;8.68;;;5.60;50.20;;;;;;5033706;28;20367;-70
2022/03/07 03:31:51;;;;;;;14.45;8.52;;;5.50;50.20;;;;;;5033699;28;20040;-71
2022/03/07 03:34:16;;;;;;;14.02;8.43;;;5.50;50.30;;;;;;5033840;28;20437;-70
2022/03/07 03:36:42;;;;;;;14.40;8.80;;;5.50;50.30;;;;;;5033734;28;20030;-69
2022/03/07 03:39:08;;;;;;;16.15;9.40;;;5.50;51.10;;;;;;5033460;28;20057;-70
2022/03/07 03:41:33;;;;;;;17.85;9.70;;;5.50;50.80;;;;;;5033572;28;20140;-70
2022/03/07 03:43:59;;;;;;;14.30;9.43;;;5.40;50.50;;;;;;5033615;28;20041;-70
2022/03/07 03:46:25;;;;;;;15.73;9.45;;;5.30;51.00;;;;;;5033588;28;20029;-69
2022/03/07 03:48:51;;;;;;;15.57;8.85;;;5.30;51.50;;;;;;5033613;28;20057;-69
2022/03/07 03:51:16;;;;;;;15.50;9.48;;;5.20;51.20;;;;;;5033625;28;20036;-71
2022/03/07 03:53:42;;;;;;;14.60;9.63;;;5.20;51.00;;;;;;5033696;28;20104;-72
2022/03/07 03:56:08;;;;;;;13.55;9.00;;;5.10;51.20;;;;;;5033533;28;20455;-70
2022/03/07 03:58:34;;;;;;;13.75;9.57;;;5.10;51.20;;;;;;5033378;28;20075;-71
2022/03/07 04:00:59;;;;;;;13.30;8.98;;;5.00;52.20;;;;;;5033385;28;20478;-70
2022/03/07 04:03:26;;;;;;;14.48;9.02;;;5.00;52.10;;;;;;5033488;28;20085;-70
2022/03/07 04:05:52;;;;;;;17.15;10.05;;;5.00;52.50;;;;;;5015083;28;20478;-70
2022/03/07 04:08:20;;;;;;;14.75;8.90;;;5.00;52.50;;;;;;5033026;28;20102;-72
2022/03/07 04:10:46;;;;;;;14.50;9.00;;;5.00;53.00;;;;;;5015404;28;20033;-70
2022/03/07 04:13:12;;;;;;;15.35;9.60;;;5.00;52.30;;;;;;5033139;28;20072;-69
2022/03/07 04:15:38;;;;;;;14.95;9.32;;;5.00;53.20;;;;;;5033136;28;20057;-69
2022/03/07 04:18:06;;;;;;;17.85;9.02;;;5.00;53.00;;;;;;5033042;28;20022;-72
2022/03/07 04:20:32;;;;;;;13.93;9.15;;;5.00;53.00;;;;;;5032981;28;20033;-71
2022/03/07 04:22:58;;;;;;;16.30;10.00;;;5.10;52.80;;;;;;5033103;28;20338;-70
2022/03/07 04:25:24;;;;;;;15.18;9.65;;;5.10;53.20;;;;;;5033101;28;20029;-71
2022/03/07 04:27:50;;;;;;;15.65;10.23;;;5.10;53.10;;;;;;5032707;28;20120;-70
2022/03/07 04:30:15;;;;;;;16.33;9.27;;;5.20;52.90;;;;;;5032919;28;20032;-72
2022/03/07 04:32:41;;;;;;;17.58;9.85;;;5.20;52.80;;;;;;5032638;28;20091;-70
2022/03/07 04:35:10;;;;;;;15.52;9.82;;;5.20;53.40;;;;;;5032749;28;20029;-71
2022/03/07 04:37:39;;;;;;;16.27;9.63;;;5.30;53.20;;;;;;5032870;28;20021;-71
2022/03/07 04:40:13;;;;;;;14.75;9.25;;;5.30;53.30;;;;;;5032650;28;20049;-73
2022/03/07 04:42:40;;;;;;;;;;;5.40;53.70;;;;;;5033426;28;20033;-71
2022/03/07 04:45:07;;;;;;;16.05;10.02;;;5.40;53.40;;;;;;5032782;28;19905;-73
2022/03/07 04:47:33;;;;;;;16.67;9.80;;;5.40;53.20;;;;;;5032629;28;20431;-71
2022/03/07 04:49:59;;;;;;;15.35;9.45;;;5.40;53.00;;;;;;5032385;28;20021;-69
2022/03/07 04:52:24;;;;;;;17.50;10.18;;;5.40;52.80;;;;;;5032458;28;20045;-71
2022/03/07 04:54:50;;;;;;;19.48;10.05;;;5.30;52.80;;;;;;5032841;28;20057;-72
2022/03/07 04:57:16;;;;;;;17.67;10.38;;;5.30;53.30;;;;;;5032862;28;20030;-71
2022/03/07 04:59:45;;;;;;;15.38;9.80;;;5.30;53.40;;;;;;5014698;28;20075;-72
2022/03/07 05:02:11;;;;;;;15.82;10.02;;;5.30;53.80;;;;;;5032395;28;20044;-71
2022/03/07 05:04:37;;;;;;;16.83;9.82;;;5.30;53.60;;;;;;5032271;28;20100;-71
2022/03/07 05:07:03;;;;;;;18.73;10.35;;;5.30;53.90;;;;;;5032441;28;20124;-72
2022/03/07 05:09:29;;;;;;;17.60;11.45;;;5.30;54.00;;;;;;5032367;28;20098;-70
2022/03/07 05:11:54;;;;;;;17.17;11.80;;;5.30;53.60;;;;;;5032317;28;20112;-71
2022/03/07 05:14:20;;;;;;;19.55;11.45;;;5.40;54.10;;;;;;5032285;28;20032;-71
2022/03/07 05:16:46;;;;;;;18.52;12.10;;;5.30;54.00;;;;;;5032312;28;20478;-71
2022/03/07 05:19:12;;;;;;;20.83;12.70;;;5.30;53.70;;;;;;5034194;28;20026;-70
2022/03/07 05:21:37;;;;;;;19.13;12.25;;;5.40;54.00;;;;;;5036175;28;20490;-69
2022/03/07 05:24:03;;;;;;;21.13;12.35;;;5.30;54.40;;;;;;5036389;28;20033;-69
2022/03/07 05:26:29;;;;;;;19.60;12.05;;;5.30;54.60;;;;;;5036589;28;20370;-72
2022/03/07 05:28:55;;;;;;;24.55;14.20;;;5.30;54.80;;;;;;5036240;28;20097;-71
2022/03/07 05:31:21;;;;;;;25.20;13.90;;;5.40;54.90;;;;;;5036210;28;20013;-71
2022/03/07 05:33:47;;;;;;;22.98;14.43;;;5.40;55.00;;;;;;5036239;28;20032;-71
2022/03/07 05:36:12;;;;;;;28.08;15.30;;;5.40;54.80;;;;;;5036056;28;20022;-72
2022/03/07 05:38:38;;;;;;;25.48;16.20;;;5.40;55.30;;;;;;5035929;28;20475;-70
2022/03/07 05:41:04;;;;;;;30.98;18.10;;;5.30;55.30;;;;;;5035882;28;20053;-71
2022/03/07 05:43:30;;;;;;;28.63;17.13;;;5.30;55.40;;;;;;5036028;28;20104;-69
2022/03/07 05:45:56;;;;;;;28.00;17.02;;;5.30;55.50;;;;;;5035888;28;20386;-71
2022/03/07 05:48:21;;;;;;;27.05;17.85;;;5.30;55.30;;;;;;5035896;28;20025;-71
2022/03/07 05:50:47;;;;;;;26.55;15.45;;;5.30;55.30;;;;;;5035948;28;20047;-70
2022/03/07 05:53:13;;;;;;;24.60;15.38;;;5.20;55.70;;;;;;5035699;28;20022;-71
2022/03/07 05:55:38;;;;;;;25.33;14.85;;;5.30;55.80;;;;;;5035629;28;20026;-70
2022/03/07 05:58:04;;;;;;;24.25;14.13;;;5.20;55.90;;;;;;5035559;28;20105;-70
2022/03/07 06:00:30;;;;;;;22.75;12.85;;;5.30;55.60;;;;;;5035659;28;20187;-72
2022/03/07 06:02:56;;;;;;;23.02;12.93;;;5.30;55.30;;;;;;5035756;28;20036;-72
2022/03/07 06:05:22;;;;;;;22.00;11.82;;;5.30;56.00;;;;;;5035457;28;20052;-71
2022/03/07 06:07:48;;;;;;;19.02;12.52;;;5.30;56.30;;;;;;5035472;28;20034;-71
2022/03/07 06:10:14;;;;;;;19.23;12.02;;;5.30;56.20;;;;;;5035314;28;20084;-73
2022/03/07 06:12:41;;;;;;;21.83;12.32;;;5.30;56.50;;;;;;5017646;28;20029;-71
2022/03/07 06:15:07;;;;;;;20.92;11.98;;;5.40;56.20;;;;;;5034800;28;20025;-71
2022/03/07 06:17:36;;;;;;;21.48;13.07;;;5.40;56.30;;;;;;5034271;28;20026;-71
2022/03/07 06:20:02;;;;;;;20.60;11.82;;;5.40;56.10;;;;;;5035140;28;20025;-70
2022/03/07 06:22:28;;;;;;;21.05;11.95;;;5.50;56.20;;;;;;5008299;28;20046;-70
2022/03/07 06:24:53;;;;;;;19.10;12.13;;;5.50;55.90;;;;;;5019490;28;20425;-70
2022/03/07 06:27:19;;;;;;;23.33;11.93;;;5.50;56.20;;;;;;5006019;28;20030;-71
2022/03/07 06:29:45;;;;;;;23.50;12.20;;;5.60;56.30;;;;;;5016306;28;20026;-69
2022/03/07 06:32:10;;;;;;;22.40;12.20;;;5.70;56.10;;;;;;5015240;28;20041;-71
2022/03/07 06:34:36;;;;;;;24.10;12.65;;;5.80;56.10;;;;;;5015160;28;20035;-70
2022/03/07 06:37:03;;;;;;;20.92;11.85;;;5.90;55.90;;;;;;4997695;28;20026;-71
2022/03/07 06:39:29;;;;;;;18.13;11.38;;;6.00;56.10;;;;;;5015034;28;20146;-71
2022/03/07 06:41:55;;;;;;;21.05;12.07;;;6.20;55.50;;;;;;5015039;28;20080;-74
2022/03/07 06:44:21;;;;;;;22.42;11.63;;;6.30;55.10;;;;;;5015627;28;20032;-73
2022/03/07 06:46:47;;;;;;;24.23;12.65;;;6.30;54.60;;;;;;5011470;28;20756;-73
2022/03/07 06:49:13;;;;;;;19.17;11.45;;;6.40;54.50;;;;;;5002263;28;20030;-74
2022/03/07 06:51:39;;;;;;;20.25;11.73;;;6.60;54.60;;;;;;5000416;28;20034;-78
2022/03/07 06:54:05;;;;;;;19.80;11.60;;;6.70;54.20;;;;;;4999730;28;20026;-79
2022/03/07 06:56:31;;;;;;;16.63;10.88;;;6.80;53.40;;;;;;5000023;28;20037;-81
2022/03/07 06:58:57;;;;;;;16.58;10.60;;;7.00;53.70;;;;;;5000598;28;20041;-76
2022/03/07 07:01:22;;;;;;;17.40;10.35;;;7.10;52.50;;;;;;5010879;28;20153;-75
2022/03/07 07:03:48;;;;;;;26.13;10.85;;;7.10;52.40;;;;;;5017521;28;20033;-76
2022/03/07 07:06:14;;;;;;;17.42;10.80;;;7.30;52.50;;;;;;5017110;28;20034;-77
2022/03/07 07:08:40;;;;;;;15.38;10.45;;;7.50;51.90;;;;;;4997429;28;20036;-76
2022/03/07 07:11:06;;;;;;;19.15;10.65;;;7.50;51.60;;;;;;4980159;28;20042;-74
2022/03/07 07:13:32;;;;;;;16.58;11.00;;;7.70;51.50;;;;;;5000223;28;20095;-77
2022/03/07 07:15:57;;;;;;;18.25;10.30;;;7.70;51.20;;;;;;4999012;28;20731;-76
2022/03/07 07:18:24;;;;;;;16.23;10.60;;;7.80;51.50;;;;;;4981027;28;20478;-76
2022/03/07 07:20:52;;;;;;;19.40;10.75;;;7.90;51.40;;;;;;4997910;28;20037;-75
2022/03/07 07:23:19;;;;;;;16.48;11.32;;;7.90;51.20;;;;;;4999181;28;20521;-74
2022/03/07 07:25:46;;;;;;;15.23;10.18;;;7.90;51.20;;;;;;4998757;28;20084;-72
2022/03/07 07:28:12;;;;;;;19.75;10.68;;;8.00;51.20;;;;;;4998121;28;20789;-73
2022/03/07 07:30:38;;;;;;;17.58;10.70;;;8.10;51.20;;;;;;4998410;28;20387;-74
2022/03/07 07:33:04;;;;;;;19.75;11.20;;;8.10;51.10;;;;;;4999125;28;20038;-75
2022/03/07 07:35:30;;;;;;;19.20;11.18;;;8.20;51.10;;;;;;4998224;28;20108;-73
2022/03/07 07:37:56;;;;;;;21.35;11.35;;;8.20;50.80;;;;;;4997922;28;20156;-74
2022/03/07 07:40:22;;;;;;;18.88;11.70;;;8.30;50.80;;;;;;4999186;28;20087;-79
2022/03/07 07:42:47;;;;;;;21.35;12.90;;;8.40;50.70;;;;;;4997159;28;20038;-74
2022/03/07 07:45:13;;;;;;;19.83;11.40;;;8.50;50.50;;;;;;4998250;28;20026;-77
2022/03/07 07:47:41;;;;;;;24.23;11.65;;;8.60;50.50;;;;;;4964242;28;21374;-78
2022/03/07 07:50:08;;;;;;;16.67;10.65;;;8.60;50.00;;;;;;4980242;28;20881;-79
2022/03/07 07:52:34;;;;;;;19.88;11.00;;;8.70;49.80;;;;;;4998796;28;20581;-78
2022/03/07 07:54:59;;;;;;;23.45;11.00;;;8.80;49.90;;;;;;4997050;28;20091;-76
2022/03/07 07:57:26;;;;;;;22.10;10.25;;;8.80;49.70;;;;;;4995153;28;20058;-76
2022/03/07 07:59:51;;;;;;;16.98;9.77;;;8.80;49.30;;;;;;4978679;28;20117;-72
2022/03/07 08:02:17;;;;;;;13.75;9.52;;;8.80;49.30;;;;;;4995634;28;20072;-74
2022/03/07 08:04:42;;;;;;;20.27;10.40;;;8.80;49.30;;;;;;4997887;28;20053;-74
2022/03/07 08:07:08;;;;;;;18.67;10.20;;;8.70;49.30;;;;;;4999488;28;20446;-74
2022/03/07 08:09:35;;;;;;;18.00;9.82;;;8.80;49.60;;;;;;4999399;28;20038;-76
2022/03/07 08:12:01;;;;;;;15.60;9.95;;;8.90;49.50;;;;;;4999873;28;20034;-77
2022/03/07 08:14:26;;;;;;;15.13;9.32;;;9.00;49.40;;;;;;4999966;28;20423;-76
2022/03/07 08:16:52;;;;;;;14.02;9.88;;;9.00;48.90;;;;;;4999809;28;20500;-73
2022/03/07 08:19:18;;;;;;;13.93;9.60;;;9.00;49.00;;;;;;4999872;28;20444;-74
2022/03/07 08:21:44;;;;;;;14.00;9.25;;;9.00;48.70;;;;;;4999707;28;20108;-77
2022/03/07 08:24:11;;;;;;;13.68;8.80;;;9.00;48.80;;;;;;5000678;28;20479;-75
2022/03/07 08:26:38;;;;;;;16.23;9.68;;;9.00;49.00;;;;;;4999907;28;20177;-72
2022/03/07 08:29:04;;;;;;;15.48;9.48;;;8.90;48.90;;;;;;5000216;28;20025;-73
2022/03/07 08:31:30;;;;;;;12.77;9.00;;;9.00;49.10;;;;;;4999541;28;20482;-73
2022/03/07 08:33:56;;;;;;;20.75;9.07;;;9.10;49.10;;;;;;5000400;28;20029;-75
2022/03/07 08:36:22;;;;;;;15.70;9.48;;;9.10;49.00;;;;;;4999520;28;20387;-75
2022/03/07 08:38:47;;;;;;;16.73;9.88;;;9.20;48.90;;;;;;4999815;28;20041;-73
2022/03/07 08:41:13;;;;;;;14.40;9.43;;;9.20;48.80;;;;;;4982380;28;20046;-74
2022/03/07 08:43:40;;;;;;;18.65;10.40;;;9.20;48.70;;;;;;4999564;28;20849;-72
2022/03/07 08:46:06;;;;;;;17.65;9.63;;;9.20;48.80;;;;;;4999116;28;20065;-74
2022/03/07 08:48:31;;;;;;;15.88;9.82;;;9.20;48.90;;;;;;4999968;28;20068;-72
2022/03/07 08:50:57;;;;;;;14.80;10.02;;;9.30;48.70;;;;;;4999259;28;20116;-73
2022/03/07 08:53:23;;;;;;;14.13;9.43;;;9.20;48.50;;;;;;4998682;28;20033;-72
2022/03/07 08:55:48;;;;;;;14.70;9.05;;;9.20;48.50;;;;;;4998810;28;20049;-72
2022/03/07 08:58:14;;;;;;;13.88;9.15;;;9.20;48.40;;;;;;4998765;28;20427;-71
2022/03/07 09:00:40;;;;;;;15.80;9.68;;;9.30;48.60;;;;;;4998837;28;20440;-72
2022/03/07 09:03:06;;;;;;;13.98;10.00;;;9.30;48.60;;;;;;4978860;28;20030;-72
2022/03/07 09:05:32;;;;;;;14.57;9.10;;;9.30;48.60;;;;;;4996498;28;20540;-72
2022/03/07 09:07:58;;;;;;;14.38;9.55;;;9.40;48.40;;;;;;4998972;28;20045;-71
2022/03/07 09:10:24;;;;;;;16.90;10.00;;;9.40;48.30;;;;;;4998660;28;20446;-72
2022/03/07 09:12:50;;;;;;;14.70;10.32;;;9.50;48.60;;;;;;4998711;28;20083;-70
2022/03/07 09:15:16;;;;;;;16.38;9.82;;;9.60;48.40;;;;;;4999147;28;20038;-71
2022/03/07 09:17:42;;;;;;;14.75;9.35;;;9.60;48.10;;;;;;5001877;28;20033;-72
2022/03/07 09:20:08;;;;;;;16.02;9.93;;;9.70;48.10;;;;;;5001525;28;20041;-71
2022/03/07 09:22:35;;;;;;;18.35;10.13;;;9.70;48.10;;;;;;4997910;28;20046;-72
2022/03/07 09:25:03;;;;;;;14.95;9.30;;;9.80;47.90;;;;;;4998520;28;20041;-72
2022/03/07 09:27:29;;;;;;;14.35;9.98;;;9.80;47.70;;;;;;4998513;28;20026;-71
2022/03/07 09:29:55;;;;;;;24.23;9.73;;;9.90;47.80;;;;;;4997800;28;20033;-71
2022/03/07 09:32:21;;;;;;;19.88;10.45;;;9.90;48.30;;;;;;4980456;28;20041;-71
2022/03/07 09:34:46;;;;;;;16.65;10.18;;;10.00;46.50;;;;;;4979739;28;20049;-71
2022/03/07 09:37:12;;;;;;;16.67;9.50;;;10.10;46.30;;;;;;4980980;28;20448;-72
2022/03/07 09:39:38;;;;;;;15.13;9.25;;;10.10;46.10;;;;;;4999034;28;20066;-72
2022/03/07 09:42:05;;;;;;;13.48;9.60;;;10.20;45.80;;;;;;4997721;28;20041;-71
2022/03/07 09:44:31;;;;;;;12.45;8.75;;;10.30;46.00;;;;;;4998719;28;20105;-72
2022/03/07 09:46:58;;;;;;;15.18;9.85;;;10.40;45.30;;;;;;4997863;28;21502;-72
2022/03/07 09:49:25;;;;;;;11.80;8.52;;;10.40;45.10;;;;;;4998233;28;20044;-72
2022/03/07 09:51:52;;;;;;;15.88;9.35;;;10.50;45.00;;;;;;4998458;28;20129;-73
2022/03/07 09:54:18;;;;;;;12.00;8.75;;;10.50;44.70;;;;;;4998491;28;20030;-70
2022/03/07 09:56:43;;;;;;;17.75;9.05;;;10.50;44.30;;;;;;4998128;28;20088;-72
2022/03/07 09:59:10;;;;;;;11.95;8.63;;;10.50;44.10;;;;;;4998566;28;20038;-72
2022/03/07 10:01:36;;;;;;;13.88;9.90;;;10.60;44.00;;;;;;4998046;28;20486;-73
2022/03/07 10:04:10;;;;;;;13.05;9.68;;;10.60;43.80;;;;;;4998086;28;20053;-71
2022/03/07 10:06:36;;;;;;;13.98;9.38;;;10.80;43.80;;;;;;5001827;28;20483;-75
2022/03/07 10:09:04;;;;;;;13.10;9.45;;;10.80;43.30;;;;;;5001430;28;20045;-73
2022/03/07 10:11:31;;;;;;;14.13;9.80;;;10.80;42.70;;;;;;5001932;28;20048;-74
2022/03/07 10:13:59;;;;;;;15.95;9.55;;;10.90;42.60;;;;;;5001544;28;20391;-73
2022/03/07 10:16:41;;;;;;;13.52;9.48;;;10.90;42.20;;;;;;5001543;28;20105;-73
2022/03/07 10:19:13;;;;;;;13.20;8.95;;;10.90;43.90;;;;;;5001221;28;20045;-78
2022/03/07 10:21:47;;;;;;;13.05;8.68;;;10.90;42.10;;;;;;5001500;28;20080;-73
2022/03/07 10:24:12;;;;;;;17.73;9.05;;;11.00;41.80;;;;;;5001502;28;20034;-74
2022/03/07 10:26:39;;;;;;;15.75;10.02;;;11.10;42.10;;;;;;5001351;28;20046;-74
2022/03/07 10:29:06;;;;;;;12.80;9.00;;;11.20;42.00;;;;;;5000799;28;20032;-73
2022/03/07 10:31:32;;;;;;;14.75;9.88;;;11.30;41.90;;;;;;5000841;28;20045;-74
2022/03/07 10:34:09;;;;;;;21.67;9.82;;;11.30;41.40;;;;;;5001555;28;20034;-72
2022/03/07 10:36:37;;;;;;;13.82;9.38;;;11.40;43.40;;;;;;5000719;28;21278;-72
2022/03/07 10:39:06;;;;;;;13.07;9.48;;;11.60;41.60;;;;;;4999579;28;20073;-74
2022/03/07 10:41:37;;;;;;;11.77;8.70;;;11.60;41.40;;;;;;5000485;28;20612;-75
2022/03/07 10:44:04;;;;;;;15.02;9.15;;;11.60;41.30;;;;;;5000731;28;20399;-74
2022/03/07 10:46:30;;;;;;;14.30;8.00;;;11.60;41.80;;;;;;5001266;28;20044;-74
2022/03/07 10:48:56;;;;;;;13.88;8.50;;;11.70;41.70;;;;;;5000518;28;20041;-73
2022/03/07 10:51:22;;;;;;;12.48;8.73;;;11.70;41.30;;;;;;5002503;28;20041;-73
2022/03/07 10:53:48;;;;;;;14.00;8.43;;;11.70;41.10;;;;;;5002771;28;20052;-74
2022/03/07 10:56:16;;;;;;;11.65;8.20;;;11.90;41.30;;;;;;5012395;28;20406;-73
2022/03/07 10:58:49;;;;;;;9.77;7.53;;;12.00;41.20;;;;;;5012906;28;20061;-74
2022/03/07 11:01:27;;;;;;;12.27;7.57;;;12.00;41.00;;;;;;5004345;28;20049;-72
2022/03/07 11:03:54;;;;;;;23.00;7.68;;;12.00;40.80;;;;;;5002041;28;20026;-73
2022/03/07 11:06:20;;;;;;;14.07;8.88;;;12.20;41.10;;;;;;5000666;28;21655;-73
2022/03/07 11:08:46;;;;;;;11.00;7.72;;;12.40;40.90;;;;;;5001250;28;20037;-73
2022/03/07 11:11:13;;;;;;;13.00;7.88;;;12.50;40.20;;;;;;5000956;28;20088;-71
2022/03/07 11:13:41;;;;;;;9.32;7.07;;;12.70;39.90;;;;;;5000397;28;20092;-72
2022/03/07 11:16:06;;;;;;;13.10;7.68;;;12.80;39.90;;;;;;5000509;28;20546;-71
2022/03/07 11:18:33;;;;;;;11.40;7.05;;;12.80;39.30;;;;;;5001091;28;20030;-70
2022/03/07 11:21:00;;;;;;;9.90;7.35;;;12.80;39.10;;;;;;4981935;28;20025;-75
2022/03/07 11:23:26;;;;;;;10.20;7.07;;;12.80;39.40;;;;;;5000516;28;20533;-74
2022/03/07 11:25:54;;;;;;;9.82;6.93;;;12.70;38.90;;;;;;5000002;28;20034;-72
2022/03/07 11:28:26;;;;;;;17.65;7.13;;;12.80;38.80;;;;;;4982093;28;20033;-73
2022/03/07 11:30:53;;;;;;;15.82;7.65;;;12.80;38.60;;;;;;5001422;28;20028;-75
2022/03/07 11:33:23;;;;;;;13.93;7.05;;;12.90;39.10;;;;;;4999948;28;20041;-72
2022/03/07 11:35:53;;;;;;;8.27;5.82;;;13.00;38.10;;;;;;5004780;28;20128;-72
2022/03/07 11:38:31;;;;;;;9.10;6.20;;;13.10;36.80;;;;;;4999325;28;20032;-71
2022/03/07 11:41:00;;;;;;;9.25;6.50;;;13.10;36.70;;;;;;4998977;28;20049;-71
2022/03/07 11:43:28;;;;;;;9.35;6.60;;;13.30;36.60;;;;;;5000313;28;20108;-70
2022/03/07 11:45:55;;;;;;;10.77;7.05;;;13.40;36.90;;;;;;5000796;28;20029;-69
2022/03/07 11:48:21;;;;;;;9.50;6.20;;;13.60;37.60;;;;;;4981910;28;20391;-73
2022/03/07 11:50:48;;;;;;;10.60;5.85;;;13.70;37.10;;;;;;5000769;28;20025;-74
2022/03/07 11:53:15;;;;;;;10.90;6.78;;;13.70;36.40;;;;;;4999127;28;20471;-72
2022/03/07 11:55:46;;;;;;;9.27;6.07;;;13.80;36.10;;;;;;4999894;28;20022;-77
2022/03/07 11:58:12;;;;;;;8.90;6.70;;;13.90;35.70;;;;;;4998869;28;20069;-72
2022/03/07 12:00:38;;;;;;;10.60;7.30;;;13.90;35.60;;;;;;5002483;28;20600;-74
2022/03/07 12:03:16;;;;;;;11.55;6.45;;;14.10;35.90;;;;;;5002659;28;20038;-73
2022/03/07 12:05:43;;;;;;;10.07;6.60;;;14.20;35.50;;;;;;5001786;28;20053;-71
2022/03/07 12:08:10;;;;;;;10.25;6.55;;;14.20;35.30;;;;;;5002093;28;20037;-74
2022/03/07 12:10:38;;;;;;;11.25;7.25;;;14.20;35.20;;;;;;5001856;28;20100;-76
2022/03/07 12:13:09;;;;;;;8.88;6.05;;;14.40;35.20;;;;;;5002646;28;20102;-76
2022/03/07 12:15:47;;;;;;;9.98;7.10;;;14.50;35.10;;;;;;5001989;28;20053;-70
2022/03/07 12:18:14;;;;;;;10.80;6.90;;;14.50;34.70;;;;;;5001434;28;20368;-72
2022/03/07 12:20:50;;;;;;;11.95;9.25;;;14.70;34.90;;;;;;5000496;28;20391;-73
2022/03/07 12:23:18;;;;;;;16.80;8.00;;;14.90;34.10;;;;;;5000528;28;20037;-71
2022/03/07 12:25:45;;;;;;;9.27;6.68;;;14.80;35.60;;;;;;5000651;28;21080;-72
2022/03/07 12:28:11;;;;;;;8.98;6.93;;;14.60;35.20;;;;;;4999784;28;20038;-73
2022/03/07 12:30:37;;;;;;;12.57;8.50;;;14.40;35.00;;;;;;5000103;28;20067;-73
2022/03/07 12:33:07;;;;;;;10.35;6.32;;;14.20;34.70;;;;;;4983683;28;20052;-77
2022/03/07 12:35:33;;;;;;;8.40;6.75;;;14.00;34.40;;;;;;4982652;28;20084;-73
2022/03/07 12:37:59;;;;;;;9.75;6.30;;;13.90;34.80;;;;;;4982371;28;20503;-70
2022/03/07 12:40:25;;;;;;;8.95;6.57;;;13.70;34.50;;;;;;5000478;28;20574;-73